Accueil
METAR-TAF:

METAR-TAF

Aéroports :

Aéroport international de Koweït

Koweït, Koweït

latitude: 29-13N, longitude: 047-59E, altitude: 55 m

Observation

Le bulletin a été fait il y a 58 minutes, à 11:00 UTC
Vent 10 kt de nord
Température 15°C
Humidité 41%
Pression 1020 hPa
Visibilité: 2500 m
Ciel clair
(faible) poussière généralisée

METAR: OKBK 181100Z 36010KT 2500 -DU SKC 15/02 Q1020 NOSIG

Heure: 14:58 (11:58 UTC)

Prévision

Le bulletin a été fait il y a 1 heure et 13 minutes, à 10:45 UTC
Prévision valable du 18 à 12 UTC au 19 à 18 UTC
Vent 12 kt de nord
Visibilité: 2000 m
Ciel clair
poussière généralisée
Evoluant progressivement
du 18 à 16 UTC au 18 à 18 UTC
Visibilité: 6000 m

TAF: OKBK 181045Z 1812/1918 35012KT 2000 DU SKC BECMG 1816/1818 6000

Observations et prévisions météorologiques de plus de 4000 aéroports (messages METAR et TAF).

Les stations disponibles sont représentées par des disques jaunes et rouges sur la carte.

Passer la souris dessus pour voir le nom de la station.

Cliquer dessus pour voir les observations et prévisions météorologiques.

Pour changer de carte: cliquez sur les boutons verts avec une croix noire pour zoomer, sur le bouton vert avec un tiret pour effectuer un zoom arrière, ou sur les flèches vertes pour les cartes adjacentes.


METAR-TAF: